createdAt,value
2022-09-23T00:01:35.558Z,100877.13
2022-09-23T00:04:03.989Z,100878.84
2022-09-23T00:06:32.231Z,100879.69
2022-09-23T00:09:00.586Z,100873.41
2022-09-23T00:11:29.758Z,100881.28
2022-09-23T00:14:01.278Z,100875.09
2022-09-23T00:16:34.636Z,100867.97
2022-09-23T00:19:06.483Z,100874.00
2022-09-23T00:21:35.076Z,100865.47
2022-09-23T00:24:03.545Z,100862.00
2022-09-23T00:26:32.223Z,100862.00
2022-09-23T00:29:00.710Z,100854.31
2022-09-23T00:31:29.343Z,100861.31
2022-09-23T00:34:00.631Z,100862.25
2022-09-23T00:36:29.934Z,100852.13
2022-09-23T00:38:58.246Z,100857.63
2022-09-23T00:41:27.136Z,100865.50
2022-09-23T00:43:57.123Z,100864.63
2022-09-23T00:46:30.052Z,100867.25
2022-09-23T00:49:04.633Z,100864.63
2022-09-23T00:51:36.005Z,100859.75
2022-09-23T00:54:06.719Z,100862.97
2022-09-23T00:56:36.994Z,100860.47
2022-09-23T00:59:09.747Z,100858.94
2022-09-23T01:01:38.640Z,100860.53
2022-09-23T01:04:10.038Z,100859.44
2022-09-23T01:06:38.516Z,100846.34
2022-09-23T01:09:06.940Z,100845.22
2022-09-23T01:11:49.170Z,100849.44
2022-09-23T01:14:33.370Z,100840.75
2022-09-23T01:17:10.170Z,100835.25
2022-09-23T01:20:20.819Z,100827.56
2022-09-23T01:22:57.964Z,100826.47
2022-09-23T01:25:43.646Z,100832.38
2022-09-23T01:28:51.089Z,100823.72
2022-09-23T01:31:25.637Z,100824.50
2022-09-23T01:34:02.292Z,100818.41
2022-09-23T01:36:41.212Z,100826.16
2022-09-23T01:39:15.105Z,100818.41
2022-09-23T01:41:55.110Z,100821.97
2022-09-23T01:44:30.454Z,100815.88
2022-09-23T01:47:11.143Z,100804.72
2022-09-23T01:49:48.699Z,100811.84
2022-09-23T01:52:23.947Z,100804.81
2022-09-23T01:54:58.380Z,100806.41
2022-09-23T01:57:32.711Z,100803.78
2022-09-23T02:00:08.121Z,100808.19
2022-09-23T02:02:50.124Z,100804.63
2022-09-23T02:05:23.552Z,100798.63
2022-09-23T02:07:58.112Z,100797.69
2022-09-23T02:10:32.190Z,100793.50
2022-09-23T02:13:06.519Z,100788.50
2022-09-23T02:15:40.300Z,100788.59
2022-09-23T02:18:14.456Z,100781.66
2022-09-23T02:20:44.530Z,100779.97
2022-09-23T02:23:15.210Z,100773.88
2022-09-23T02:25:52.259Z,100785.31
2022-09-23T02:28:31.049Z,100774.91
2022-09-23T02:31:11.935Z,100781.19
2022-09-23T02:33:48.048Z,100782.22
2022-09-23T02:36:26.196Z,100774.59
2022-09-23T02:38:57.557Z,100780.28
2022-09-23T02:41:33.917Z,100771.44
2022-09-23T02:44:07.549Z,100777.31
2022-09-23T02:46:37.151Z,100780.06
2022-09-23T02:49:12.688Z,100768.81
2022-09-23T02:51:42.115Z,100770.88
2022-09-23T02:54:15.039Z,100764.09
2022-09-23T02:56:43.818Z,100762.50
2022-09-23T02:59:13.583Z,100756.44
2022-09-23T03:01:53.321Z,100765.44
2022-09-23T03:04:32.065Z,100768.34
2022-09-23T03:07:06.386Z,100770.97
2022-09-23T03:09:41.881Z,100775.53
2022-09-23T03:12:18.574Z,100764.28
2022-09-23T03:14:56.065Z,100764.13
2022-09-23T03:17:30.971Z,100756.75
2022-09-23T03:20:05.674Z,100756.09
2022-09-23T03:22:39.972Z,100751.63
2022-09-23T03:25:12.654Z,100747.41
2022-09-23T03:27:42.595Z,100745.91
2022-09-23T03:30:12.862Z,100736.34
2022-09-23T03:32:45.683Z,100744.13
2022-09-23T03:35:16.142Z,100742.31
2022-09-23T03:37:49.776Z,100745.13
2022-09-23T03:40:22.819Z,100743.69
2022-09-23T03:42:51.627Z,100744.03
2022-09-23T03:45:26.187Z,100738.88
2022-09-23T03:47:54.749Z,100732.72
2022-09-23T03:50:24.535Z,100730.09
2022-09-23T03:52:52.820Z,100731.88
2022-09-23T03:55:22.946Z,100736.00
2022-09-23T03:57:51.296Z,100735.84
2022-09-23T04:00:19.966Z,100740.16
2022-09-23T04:02:48.302Z,100743.63
2022-09-23T04:05:18.069Z,100735.59
2022-09-23T04:07:48.570Z,100733.84
2022-09-23T04:10:16.960Z,100734.66
2022-09-23T04:12:45.219Z,100734.41
2022-09-23T04:15:13.515Z,100738.44
2022-09-23T04:17:42.053Z,100735.41
2022-09-23T04:20:11.004Z,100735.47
2022-09-23T04:22:39.295Z,100732.22
2022-09-23T04:25:10.313Z,100732.28
2022-09-23T04:27:38.926Z,100737.47
2022-09-23T04:30:08.189Z,100735.66
2022-09-23T04:32:36.768Z,100731.28
2022-09-23T04:35:06.339Z,100731.28
2022-09-23T04:37:34.977Z,100731.94
2022-09-23T04:40:04.012Z,100732.78
2022-09-23T04:42:34.671Z,100735.34
2022-09-23T04:45:04.646Z,100725.69
2022-09-23T04:47:33.321Z,100729.75
2022-09-23T04:50:01.663Z,100728.72
2022-09-23T04:52:31.562Z,100732.09
2022-09-23T04:54:59.756Z,100728.00
2022-09-23T04:57:28.240Z,100729.16
2022-09-23T04:59:58.122Z,100729.44
2022-09-23T05:02:26.486Z,100729.84
2022-09-23T05:04:57.296Z,100729.91
2022-09-23T05:07:26.078Z,100733.38
2022-09-23T05:09:55.946Z,100731.63
2022-09-23T05:12:24.162Z,100730.78
2022-09-23T05:14:52.358Z,100735.09
2022-09-23T05:17:22.146Z,100727.41
2022-09-23T05:19:50.352Z,100725.81
2022-09-23T05:22:18.518Z,100725.97
2022-09-23T05:24:46.998Z,100729.53
2022-09-23T05:27:20.327Z,100721.84
2022-09-23T05:29:53.580Z,100728.06
2022-09-23T05:32:24.539Z,100726.22
2022-09-23T05:34:55.742Z,100717.53
2022-09-23T05:37:25.140Z,100723.59
2022-09-23T05:39:53.266Z,100726.72
2022-09-23T05:42:21.770Z,100716.75
2022-09-23T05:44:50.161Z,100721.81
2022-09-23T05:47:18.338Z,100711.69
2022-09-23T05:49:59.659Z,100715.41
2022-09-23T05:52:29.282Z,100709.50
2022-09-23T05:54:57.488Z,100712.06
2022-09-23T05:57:26.147Z,100705.13
2022-09-23T05:59:54.358Z,100708.75
2022-09-23T06:02:22.583Z,100708.94
2022-09-23T06:04:52.570Z,100704.19
2022-09-23T06:07:21.030Z,100704.78
2022-09-23T06:09:50.634Z,100710.34
2022-09-23T06:12:19.799Z,100708.00
2022-09-23T06:14:48.803Z,100717.66
2022-09-23T06:17:17.504Z,100708.31
2022-09-23T06:19:45.703Z,100710.16
2022-09-23T06:22:17.923Z,100711.84
2022-09-23T06:24:47.705Z,100707.72
2022-09-23T06:27:16.147Z,100711.34
2022-09-23T06:29:44.367Z,100711.41
2022-09-23T06:32:12.655Z,100717.47
2022-09-23T06:34:50.744Z,100708.88
2022-09-23T06:37:21.531Z,100715.91
2022-09-23T06:39:50.059Z,100716.00
2022-09-23T06:42:19.566Z,100712.56
2022-09-23T06:44:47.862Z,100714.31
2022-09-23T06:47:16.118Z,100716.00
2022-09-23T06:49:45.729Z,100709.03
2022-09-23T06:52:13.879Z,100710.78
2022-09-23T06:54:43.609Z,100711.50
2022-09-23T06:57:12.466Z,100702.03
2022-09-23T06:59:41.827Z,100707.13
2022-09-23T07:02:10.436Z,100709.63
2022-09-23T07:04:39.014Z,100708.78
2022-09-23T07:07:07.367Z,100710.31
2022-09-23T07:09:35.714Z,100718.09
2022-09-23T07:12:05.819Z,100715.22
2022-09-23T07:14:34.637Z,100719.53
2022-09-23T07:17:03.727Z,100720.22
2022-09-23T07:19:32.330Z,100719.97
2022-09-23T07:22:00.570Z,100726.69
2022-09-23T07:24:29.131Z,100723.16
2022-09-23T07:26:57.920Z,100731.63
2022-09-23T07:29:30.345Z,100734.16
2022-09-23T07:32:10.036Z,100732.44
2022-09-23T07:34:43.609Z,100733.44
2022-09-23T07:37:12.039Z,100727.22
2022-09-23T07:39:40.354Z,100732.13
2022-09-23T07:42:08.963Z,100731.03
2022-09-23T07:44:38.587Z,100731.69
2022-09-23T07:47:07.175Z,100730.09
2022-09-23T07:49:36.660Z,100735.41
2022-09-23T07:52:06.569Z,100736.25
2022-09-23T07:54:47.835Z,100733.72
2022-09-23T07:57:28.565Z,100731.19
2022-09-23T08:00:19.829Z,100736.69
2022-09-23T08:03:00.627Z,100733.06
2022-09-23T08:05:49.063Z,100727.66
2022-09-23T08:08:30.585Z,100736.34
2022-09-23T08:11:14.595Z,100739.47
2022-09-23T08:14:03.582Z,100740.91
2022-09-23T08:16:54.211Z,100746.06
2022-09-23T08:19:35.557Z,100742.31
2022-09-23T08:22:23.548Z,100736.34
2022-09-23T08:25:12.807Z,100742.19
2022-09-23T08:28:01.232Z,100746.63
2022-09-23T08:30:42.978Z,100743.09
2022-09-23T08:33:33.270Z,100738.88
2022-09-23T08:36:13.905Z,100743.00
2022-09-23T08:38:42.257Z,100743.00
2022-09-23T08:41:17.840Z,100748.75
2022-09-23T08:43:49.909Z,100743.03
2022-09-23T08:46:25.230Z,100743.25
2022-09-23T08:48:56.347Z,100754.75
2022-09-23T08:51:32.742Z,100752.66
2022-09-23T08:54:02.437Z,100755.28
2022-09-23T08:56:35.244Z,100756.25
2022-09-23T08:59:10.771Z,100756.03
2022-09-23T09:01:44.541Z,100756.59
2022-09-23T09:04:21.607Z,100756.69
2022-09-23T09:06:55.888Z,100746.97
2022-09-23T09:09:32.350Z,100752.88
2022-09-23T09:12:06.549Z,100753.50
2022-09-23T09:14:44.103Z,100746.97
2022-09-23T09:17:20.144Z,100755.91
2022-09-23T09:20:05.428Z,100760.81
2022-09-23T09:22:46.071Z,100756.00
2022-09-23T09:25:24.216Z,100757.06
2022-09-23T09:27:53.882Z,100754.69
2022-09-23T09:30:22.191Z,100754.81
2022-09-23T09:32:58.432Z,100755.75
2022-09-23T09:35:37.807Z,100757.47
2022-09-23T09:38:06.917Z,100754.22
2022-09-23T09:40:37.312Z,100751.69
2022-09-23T09:43:05.713Z,100755.06
2022-09-23T09:45:58.058Z,100746.97
2022-09-23T09:48:33.160Z,100742.72
2022-09-23T09:51:19.530Z,100741.50
2022-09-23T09:53:48.338Z,100748.09
2022-09-23T09:56:18.721Z,100737.00
2022-09-23T09:58:50.294Z,100739.94
2022-09-23T10:01:23.474Z,100739.38
2022-09-23T10:03:56.938Z,100743.06
2022-09-23T10:06:31.783Z,100751.84
2022-09-23T10:09:12.830Z,100740.91
2022-09-23T10:11:42.088Z,100743.25
2022-09-23T10:14:18.205Z,100734.91
2022-09-23T10:16:48.923Z,100733.78
2022-09-23T10:19:26.815Z,100724.00
2022-09-23T10:22:00.324Z,100729.91
2022-09-23T10:24:32.318Z,100727.81
2022-09-23T10:27:04.482Z,100720.69
2022-09-23T10:29:35.439Z,100721.41
2022-09-23T10:32:25.741Z,100724.41
2022-09-23T10:34:57.445Z,100733.06
2022-09-23T10:37:31.931Z,100736.75
2022-09-23T10:40:18.959Z,100733.47
2022-09-23T10:43:33.407Z,100728.28
2022-09-23T10:46:22.661Z,100728.75
2022-09-23T10:49:04.753Z,100728.63
2022-09-23T10:51:43.755Z,100722.66
2022-09-23T10:54:26.090Z,100720.28
2022-09-23T10:57:00.958Z,100714.88
2022-09-23T10:59:55.309Z,100716.59
2022-09-23T11:02:41.962Z,100713.75
2022-09-23T11:05:26.985Z,100716.38
2022-09-23T11:08:04.677Z,100712.03
2022-09-23T11:11:04.779Z,100711.72
2022-09-23T11:13:54.713Z,100710.28
2022-09-23T11:16:39.305Z,100708.81
2022-09-23T11:19:25.517Z,100705.28
2022-09-23T11:22:17.395Z,100708.44
2022-09-23T11:25:01.752Z,100706.94
2022-09-23T11:27:46.209Z,100706.69
2022-09-23T11:30:17.707Z,100709.03
2022-09-23T11:35:38.463Z,100716.44
2022-09-23T11:38:12.178Z,100714.72
2022-09-23T11:40:45.604Z,100719.75
2022-09-23T11:43:23.615Z,100715.03
2022-09-23T11:45:59.014Z,100721.75
2022-09-23T11:48:35.293Z,100710.31
2022-09-23T11:51:11.102Z,100710.41
2022-09-23T11:53:48.729Z,100707.22
2022-09-23T11:56:34.202Z,100710.06
2022-09-23T11:59:12.029Z,100708.41
2022-09-23T12:01:46.924Z,100708.13
2022-09-23T12:04:25.180Z,100704.88
2022-09-23T12:07:01.175Z,100695.50
2022-09-23T12:09:57.383Z,100689.16
2022-09-23T12:12:36.844Z,100685.34
2022-09-23T12:15:25.302Z,100687.16
2022-09-23T12:18:23.300Z,100684.63
2022-09-23T12:21:32.766Z,100688.72
2022-09-23T12:24:25.164Z,100689.81
2022-09-23T12:26:56.318Z,100687.66
2022-09-23T12:32:07.472Z,100695.97
2022-09-23T12:34:44.174Z,100697.88
2022-09-23T12:37:12.487Z,100701.25
2022-09-23T12:39:41.107Z,100690.41
2022-09-23T12:42:20.047Z,100678.78
2022-09-23T12:44:54.088Z,100685.44
2022-09-23T12:47:39.939Z,100684.66
2022-09-23T12:50:42.007Z,100679.84
2022-09-23T12:53:50.405Z,100682.13
2022-09-23T12:56:20.275Z,100670.41
2022-09-23T12:59:13.153Z,100676.38
2022-09-23T13:01:42.799Z,100679.22
2022-09-23T13:04:49.255Z,100675.84
2022-09-23T13:07:28.362Z,100678.00
2022-09-23T13:10:07.183Z,100678.69
2022-09-23T13:12:46.173Z,100671.59
2022-09-23T13:15:25.957Z,100669.25
2022-09-23T13:17:54.231Z,100671.94
2022-09-23T13:20:43.317Z,100684.34
2022-09-23T13:23:22.913Z,100686.97
2022-09-23T13:25:53.371Z,100679.06
2022-09-23T13:28:35.063Z,100680.50
2022-09-23T13:31:15.258Z,100682.63
2022-09-23T13:33:48.516Z,100676.13
2022-09-23T13:36:20.488Z,100683.59
2022-09-23T13:38:49.425Z,100691.34
2022-09-23T13:41:22.709Z,100685.97
2022-09-23T13:43:53.323Z,100689.34
2022-09-23T13:46:24.646Z,100684.75
2022-09-23T13:48:56.844Z,100684.94
2022-09-23T13:51:27.890Z,100684.94
2022-09-23T13:53:58.916Z,100691.91
2022-09-23T13:56:29.444Z,100690.22
2022-09-23T13:59:23.717Z,100683.25
2022-09-23T14:01:52.364Z,100690.06
2022-09-23T14:04:25.869Z,100696.34
2022-09-23T14:06:56.731Z,100692.97
2022-09-23T14:09:30.467Z,100693.91
2022-09-23T14:12:02.407Z,100700.22
2022-09-23T14:14:39.422Z,100699.16
2022-09-23T14:17:10.308Z,100691.25
2022-09-23T14:19:41.314Z,100691.69
2022-09-23T14:22:25.095Z,100680.06
2022-09-23T14:25:03.403Z,100687.22
2022-09-23T14:27:39.865Z,100685.53
2022-09-23T14:30:15.282Z,100692.06
2022-09-23T14:32:50.863Z,100694.03
2022-09-23T14:35:25.286Z,100693.59
2022-09-23T14:38:20.219Z,100691.59
2022-09-23T14:41:28.632Z,100694.63
2022-09-23T14:44:02.878Z,100690.28
2022-09-23T14:46:35.455Z,100690.81
2022-09-23T14:49:08.097Z,100688.19
2022-09-23T14:51:47.952Z,100684.84
2022-09-23T14:54:42.950Z,100683.16
2022-09-23T14:57:27.756Z,100680.44
2022-09-23T14:59:59.901Z,100675.63
2022-09-23T15:02:33.702Z,100672.44
2022-09-23T15:05:41.928Z,100673.09
2022-09-23T15:08:20.964Z,100675.84
2022-09-23T15:11:07.874Z,100670.59
2022-09-23T15:13:46.640Z,100667.34
2022-09-23T15:16:18.930Z,100666.22
2022-09-23T15:18:54.731Z,100666.22
2022-09-23T15:21:28.088Z,100656.25
2022-09-23T15:23:58.704Z,100657.72
2022-09-23T15:26:50.179Z,100662.00
2022-09-23T15:29:33.119Z,100659.28
2022-09-23T15:32:02.079Z,100663.28
2022-09-23T15:34:33.835Z,100661.16
2022-09-23T15:37:21.165Z,100659.94
2022-09-23T15:39:58.532Z,100654.22
2022-09-23T15:42:37.977Z,100666.63
2022-09-23T15:45:07.295Z,100661.81
2022-09-23T15:47:50.571Z,100669.31
2022-09-23T15:50:36.447Z,100660.06
2022-09-23T15:53:06.918Z,100662.78
2022-09-23T15:55:45.903Z,100662.94
2022-09-23T15:58:45.432Z,100660.75
2022-09-23T16:01:20.362Z,100658.13
2022-09-23T16:03:58.880Z,100657.19
2022-09-23T16:06:53.412Z,100657.41
2022-09-23T16:12:23.259Z,100658.53
2022-09-23T16:15:13.630Z,100663.03
2022-09-23T16:17:49.026Z,100669.34
2022-09-23T16:20:22.446Z,100662.03
2022-09-23T16:23:07.426Z,100663.81
2022-09-23T16:25:37.210Z,100666.09
2022-09-23T16:28:07.057Z,100656.41
2022-09-23T16:30:56.662Z,100662.81
2022-09-23T16:33:45.270Z,100662.94
2022-09-23T16:36:20.989Z,100669.34
2022-09-23T16:38:52.887Z,100663.66
2022-09-23T16:41:27.756Z,100665.44
2022-09-23T16:44:00.719Z,100658.41
2022-09-23T16:46:31.618Z,100654.50
2022-09-23T16:54:37.446Z,100676.75
2022-09-23T16:57:07.066Z,100680.31
2022-09-23T16:59:49.094Z,100671.75
2022-09-23T17:02:36.129Z,100677.44
2022-09-23T17:05:05.771Z,100684.78
2022-09-23T17:07:34.233Z,100689.38
2022-09-23T17:10:05.778Z,100688.41
2022-09-23T17:12:35.200Z,100682.63
2022-09-23T17:15:11.153Z,100688.50
2022-09-23T17:17:40.956Z,100694.31
2022-09-23T17:20:09.534Z,100691.22
2022-09-23T17:22:37.666Z,100683.88
2022-09-23T17:25:06.757Z,100687.91
2022-09-23T17:27:34.921Z,100691.19
2022-09-23T17:30:03.429Z,100691.56
2022-09-23T17:32:32.073Z,100696.56
2022-09-23T17:35:04.961Z,100698.78
2022-09-23T17:37:43.875Z,100695.31
2022-09-23T17:40:12.678Z,100700.81
2022-09-23T17:42:42.268Z,100700.53
2022-09-23T17:45:17.754Z,100702.69
2022-09-23T17:47:58.133Z,100702.38
2022-09-23T17:50:28.176Z,100709.50
2022-09-23T17:52:56.999Z,100700.50
2022-09-23T17:55:28.105Z,100712.34
2022-09-23T17:58:11.112Z,100707.75
2022-09-23T18:00:39.463Z,100707.41
2022-09-23T18:03:07.928Z,100705.97
2022-09-23T18:06:08.717Z,100705.84
2022-09-23T18:08:37.934Z,100714.13
2022-09-23T18:11:46.712Z,100704.91
2022-09-23T18:14:27.708Z,100709.75
2022-09-23T18:16:56.644Z,100716.25
2022-09-23T18:19:34.715Z,100715.75
2022-09-23T18:22:21.986Z,100729.06
2022-09-23T18:24:50.676Z,100727.16
2022-09-23T18:27:19.263Z,100732.63
2022-09-23T18:30:18.661Z,100727.56
2022-09-23T18:33:00.045Z,100731.41
2022-09-23T18:39:10.634Z,100737.53
2022-09-23T18:41:38.917Z,100731.69
2022-09-23T18:44:25.666Z,100741.53
2022-09-23T18:47:32.517Z,100743.63
2022-09-23T18:53:50.624Z,100738.03
2022-09-23T18:57:34.778Z,100743.59
2022-09-23T19:00:15.258Z,100749.97
2022-09-23T19:03:41.010Z,100747.59
2022-09-23T19:10:43.307Z,100759.69
2022-09-23T19:13:55.355Z,100761.59
2022-09-23T19:17:01.631Z,100746.84
2022-09-23T19:20:07.051Z,100761.13
2022-09-23T19:22:53.601Z,100770.66
2022-09-23T19:26:15.790Z,100765.81
2022-09-23T19:29:31.459Z,100774.47
2022-09-23T19:32:27.195Z,100771.31
2022-09-23T19:35:37.566Z,100768.78
2022-09-23T19:38:34.309Z,100776.00
2022-09-23T19:45:41.557Z,100779.81
2022-09-23T19:48:48.641Z,100777.44
2022-09-23T19:56:02.543Z,100783.81
2022-09-23T20:03:07.568Z,100793.53
2022-09-23T20:06:04.663Z,100792.69
2022-09-23T20:09:16.386Z,100796.19
2022-09-23T20:23:34.597Z,100792.03
2022-09-23T20:27:10.155Z,100797.06
2022-09-23T20:46:09.562Z,100805.84
2022-09-23T20:50:11.612Z,100810.16
2022-09-23T21:12:38.998Z,100815.59
2022-09-23T21:27:11.673Z,100814.03
2022-09-23T21:37:18.696Z,100820.34
2022-09-23T21:47:34.431Z,100826.75
2022-09-23T21:50:57.333Z,100829.50
2022-09-23T21:53:52.051Z,100824.28
2022-09-23T22:03:56.279Z,100827.84
2022-09-23T22:14:11.938Z,100823.44
2022-09-23T22:17:37.408Z,100822.38
2022-09-23T22:20:21.219Z,100830.78
2022-09-23T22:23:32.400Z,100833.00
2022-09-23T22:26:29.820Z,100842.47
2022-09-23T22:29:43.425Z,100839.78
2022-09-23T22:43:08.605Z,100845.22
2022-09-23T22:46:25.965Z,100836.53
2022-09-23T22:53:04.133Z,100832.81
2022-09-23T23:00:44.399Z,100838.78
2022-09-23T23:08:38.668Z,100829.78
2022-09-23T23:11:32.408Z,100835.00
2022-09-23T23:14:54.445Z,100836.81
2022-09-23T23:17:43.721Z,100834.44
2022-09-23T23:20:46.237Z,100824.09
2022-09-23T23:23:49.235Z,100827.81
2022-09-23T23:26:30.247Z,100822.69
2022-09-23T23:32:09.553Z,100824.09
2022-09-23T23:34:52.777Z,100823.25
2022-09-23T23:38:08.512Z,100831.34
2022-09-23T23:41:41.005Z,100830.59
2022-09-23T23:45:25.234Z,100824.78
2022-09-23T23:48:26.562Z,100823.16
2022-09-23T23:58:38.199Z,100831.91
